Time;durP1;ratioP1;P1;durP2;ratioP2;P2;SDS_P1;SDS_P2;PMS_P1;PMS_P2;Temp;Humidity;BMP_temperature;BMP_pressure;BME280_temperature;BME280_humidity;BME280_pressure;Samples;Min_cycle;Max_cycle;Signal;HPM_P1;HPM_P2
2021/05/14 00:01:48;;;;;;;;;;;;;;;13.64;100.00;98054.00;5061675;28;19986;-66
2021/05/14 00:04:13;;;;;;;;;;;;;;;14.00;100.00;98055.25;5059876;28;19960;-66
2021/05/14 00:06:39;;;;;;;;;;;;;;;14.09;100.00;98054.69;5060275;28;19920;-66
2021/05/14 00:09:04;;;;;;;;;;;;;;;13.86;100.00;98058.69;5061772;28;20579;-66
2021/05/14 00:11:29;;;;;;;;;;;;;;;13.50;100.00;98053.97;5061104;28;20018;-66
2021/05/14 00:13:58;;;;;;;;;;;;;;;13.54;100.00;98055.44;5058764;28;20035;-67
2021/05/14 00:16:24;;;;;;;;;;;;;;;13.63;100.00;98054.06;5062579;28;20367;-66
2021/05/14 00:18:49;;;;;;;;;;;;;;;13.57;100.00;98053.53;5058031;28;20273;-66
2021/05/14 00:21:14;;;;;;;;;;;;;;;13.27;100.00;98050.94;5048223;28;19922;-67
2021/05/14 00:23:40;;;;;;;;;;;;;;;12.88;100.00;98044.56;5060348;28;19978;-67
2021/05/14 00:26:05;;;;;;;;;;;;;;;13.14;100.00;98050.00;5041658;28;19990;-66
2021/05/14 00:28:30;;;;;;;;;;;;;;;13.16;100.00;98046.41;5060624;28;19916;-66
2021/05/14 00:30:56;;;;;;;;;;;;;;;12.42;100.00;98046.28;5061271;28;19916;-66
2021/05/14 00:33:21;;;;;;;;;;;;;;;12.08;100.00;98046.34;5060109;28;19962;-66
2021/05/14 00:35:46;;;;;;;;;;;;;;;12.49;100.00;98050.19;5060548;28;20476;-66
2021/05/14 00:38:13;;;;;;;;;;;;;;;13.09;100.00;98050.28;5056818;28;20625;-66
2021/05/14 00:40:38;;;;;;;;;;;;;;;12.71;100.00;98047.28;5059295;28;20027;-66
2021/05/14 00:43:03;;;;;;;;;;;;;;;12.63;100.00;98049.44;5058884;28;20012;-66
2021/05/14 00:45:29;;;;;;;;;;;;;;;12.72;100.00;98048.91;5062876;28;20022;-66
2021/05/14 00:47:54;;;;;;;;;;;;;;;13.21;100.00;98040.16;5060824;28;20436;-66
2021/05/14 00:50:19;;;;;;;;;;;;;;;13.12;100.00;98042.34;5059825;28;19920;-66
2021/05/14 00:52:45;;;;;;;;;;;;;;;13.01;100.00;98043.88;5058875;28;19917;-67
2021/05/14 00:55:10;;;;;;;;;;;;;;;13.44;100.00;98046.59;5059032;28;19969;-66
2021/05/14 00:57:36;;;;;;;;;;;;;;;13.48;100.00;98050.63;5059502;28;20382;-66
2021/05/14 01:00:02;;;;;;;;;;;;;;;13.04;100.00;98044.50;5061888;28;20273;-66
2021/05/14 01:02:27;;;;;;;;;;;;;;;12.61;100.00;98040.94;5081039;28;20014;-66
2021/05/14 01:04:53;;;;;;;;;;;;;;;12.85;100.00;98042.16;5062169;28;20434;-66
2021/05/14 01:07:18;;;;;;;;;;;;;;;12.98;100.00;98045.72;5080912;28;19916;-66
2021/05/14 01:09:43;;;;;;;;;;;;;;;12.44;100.00;98045.28;5081354;28;20407;-66
2021/05/14 01:12:09;;;;;;;;;;;;;;;12.69;100.00;98044.75;5061971;28;20378;-66
2021/05/14 01:14:35;;;;;;;;;;;;;;;12.32;100.00;98044.22;5079952;28;20007;-66
2021/05/14 01:17:00;;;;;;;;;;;;;;;12.57;100.00;98045.47;5080386;28;19920;-66
2021/05/14 01:19:25;;;;;;;;;;;;;;;12.87;100.00;98044.66;5080190;28;20824;-66
2021/05/14 01:21:52;;;;;;;;;;;;;;;12.88;100.00;98044.56;5056665;28;19920;-66
2021/05/14 01:24:17;;;;;;;;;;;;;;;13.24;100.00;98040.78;5063467;28;19922;-65
2021/05/14 01:26:43;;;;;;;;;;;;;;;13.01;100.00;98038.69;5063403;28;19920;-66
2021/05/14 01:29:10;;;;;;;;;;;;;;;13.48;100.00;98042.88;5046020;28;20481;-66
2021/05/14 01:31:35;;;;;;;;;;;;;;;13.29;100.00;98043.97;5045722;28;19943;-66
2021/05/14 01:34:01;;;;;;;;;;;;;;;12.98;100.00;98045.72;5057292;28;19935;-66
2021/05/14 01:36:26;;;;;;;;;;;;;;;12.98;100.00;98045.72;5063115;28;20339;-66
2021/05/14 01:38:52;;;;;;;;;;;;;;;12.57;100.00;98040.28;5062571;28;19962;-66
2021/05/14 01:41:17;;;;;;;;;;;;;;;12.78;100.00;98043.41;5078884;28;19969;-66
2021/05/14 01:43:42;;;;;;;;;;;;;;;13.10;100.00;98043.34;5080393;28;19912;-66
2021/05/14 01:46:08;;;;;;;;;;;;;;;13.15;100.00;98043.91;5080382;28;19920;-66
2021/05/14 01:48:33;;;;;;;;;;;;;;;13.15;100.00;98041.31;5080670;28;19999;-66
2021/05/14 01:51:03;;;;;;;;;;;;;;;12.46;100.00;98042.63;5080512;28;19920;-66
2021/05/14 01:53:28;;;;;;;;;;;;;;;12.94;100.00;98038.22;5061610;28;19920;-66
2021/05/14 01:55:53;;;;;;;;;;;;;;;12.50;100.00;98034.63;5063524;28;19922;-66
2021/05/14 01:58:19;;;;;;;;;;;;;;;12.48;100.00;98036.47;5060121;28;20022;-66
2021/05/14 02:00:44;;;;;;;;;;;;;;;12.75;100.00;98038.44;5080260;28;19920;-65
2021/05/14 02:03:09;;;;;;;;;;;;;;;12.65;100.00;98037.28;5060090;28;19917;-66
2021/05/14 02:05:35;;;;;;;;;;;;;;;12.54;100.00;98038.72;5075948;28;19948;-66
2021/05/14 02:08:00;;;;;;;;;;;;;;;12.58;100.00;98035.94;5062711;28;19912;-66
2021/05/14 02:10:25;;;;;;;;;;;;;;;11.77;100.00;98041.13;5062046;28;20276;-66
2021/05/14 02:12:51;;;;;;;;;;;;;;;12.40;100.00;98036.03;5084834;28;19917;-66
2021/05/14 02:15:17;;;;;;;;;;;;;;;12.31;100.00;98039.94;5063984;28;19916;-66
2021/05/14 02:17:44;;;;;;;;;;;;;;;12.40;100.00;98038.63;5065234;28;19920;-66
2021/05/14 02:20:09;;;;;;;;;;;;;;;12.06;100.00;98040.44;5083575;28;19926;-66
2021/05/14 02:22:35;;;;;;;;;;;;;;;12.30;100.00;98038.31;5084716;28;19916;-66
2021/05/14 02:25:00;;;;;;;;;;;;;;;12.01;100.00;98034.69;5083601;28;19917;-66
2021/05/14 02:27:26;;;;;;;;;;;;;;;11.72;100.00;98034.47;5066021;28;19917;-66
2021/05/14 02:29:51;;;;;;;;;;;;;;;12.17;100.00;98029.56;5084872;28;19919;-66
2021/05/14 02:32:17;;;;;;;;;;;;;;;12.49;100.00;98032.94;5049567;28;20349;-66
2021/05/14 02:34:42;;;;;;;;;;;;;;;12.50;100.00;98021.72;5066234;28;19920;-66
2021/05/14 02:37:07;;;;;;;;;;;;;;;12.60;100.00;98027.19;5084348;28;19946;-66
2021/05/14 02:39:33;;;;;;;;;;;;;;;12.31;100.00;98026.22;5083526;28;20217;-66
2021/05/14 02:41:58;;;;;;;;;;;;;;;12.17;100.00;98033.88;5066753;28;20342;-66
2021/05/14 02:44:24;;;;;;;;;;;;;;;12.19;100.00;98026.91;5065773;28;20232;-66
2021/05/14 02:46:49;;;;;;;;;;;;;;;12.10;100.00;98025.63;5066897;28;20367;-66
2021/05/14 02:49:15;;;;;;;;;;;;;;;12.08;100.00;98028.28;5082655;28;20337;-66
2021/05/14 02:51:40;;;;;;;;;;;;;;;11.76;100.00;98031.72;5082225;28;20412;-66
2021/05/14 02:54:05;;;;;;;;;;;;;;;12.03;100.00;98027.72;5080082;28;20362;-66
2021/05/14 02:56:31;;;;;;;;;;;;;;;12.32;100.00;98025.31;5081864;28;19923;-66
2021/05/14 02:58:56;;;;;;;;;;;;;;;12.19;100.00;98025.16;5062938;28;19985;-66
2021/05/14 03:01:22;;;;;;;;;;;;;;;12.16;100.00;98024.47;5063630;28;19951;-66
2021/05/14 03:03:47;;;;;;;;;;;;;;;11.65;100.00;98035.69;5062867;28;19916;-66
2021/05/14 03:06:13;;;;;;;;;;;;;;;12.00;100.00;98025.31;5080121;28;19942;-66
2021/05/14 03:08:38;;;;;;;;;;;;;;;11.95;100.00;98027.31;5065695;28;19951;-66
2021/05/14 03:11:04;;;;;;;;;;;;;;;12.12;100.00;98027.22;5083050;28;19949;-66
2021/05/14 03:13:29;;;;;;;;;;;;;;;11.60;100.00;98029.94;5048637;28;19977;-66
2021/05/14 03:15:54;;;;;;;;;;;;;;;11.75;100.00;98032.66;5082885;28;20280;-66
2021/05/14 03:18:20;;;;;;;;;;;;;;;11.68;100.00;98032.13;5059226;28;19924;-66
2021/05/14 03:20:45;;;;;;;;;;;;;;;11.38;100.00;98029.38;5083507;28;19920;-66
2021/05/14 03:23:11;;;;;;;;;;;;;;;11.58;100.00;98034.34;5082118;28;20294;-66
2021/05/14 03:25:36;;;;;;;;;;;;;;;12.13;100.00;98031.47;5083857;28;20280;-66
2021/05/14 03:28:02;;;;;;;;;;;;;;;12.05;100.00;98038.78;5083592;28;19954;-66
2021/05/14 03:30:27;;;;;;;;;;;;;;;11.68;100.00;98034.72;5064459;28;19977;-66
2021/05/14 03:32:52;;;;;;;;;;;;;;;11.95;100.00;98039.34;5084796;28;19927;-66
2021/05/14 03:35:18;;;;;;;;;;;;;;;12.00;100.00;98040.78;5059297;28;19920;-66
2021/05/14 03:37:43;;;;;;;;;;;;;;;11.98;100.00;98032.28;5082591;28;20017;-66
2021/05/14 03:40:19;;;;;;;;;;;;;;;12.44;100.00;98029.78;5066032;28;20006;-66
2021/05/14 03:42:45;;;;;;;;;;;;;;;12.32;100.00;98040.81;5067106;28;19916;-66
2021/05/14 03:45:10;;;;;;;;;;;;;;;11.78;100.00;98045.38;5082259;28;19912;-66
2021/05/14 03:47:36;;;;;;;;;;;;;;;12.24;100.00;98040.38;5065851;28;19959;-66
2021/05/14 03:50:02;;;;;;;;;;;;;;;11.73;100.00;98043.03;5083803;28;19927;-66
2021/05/14 03:52:27;;;;;;;;;;;;;;;11.81;100.00;98035.72;5065021;28;19928;-66
2021/05/14 03:54:52;;;;;;;;;;;;;;;11.35;100.00;98042.41;5082678;28;20371;-66
2021/05/14 03:57:18;;;;;;;;;;;;;;;11.75;100.00;98045.56;5066084;28;20312;-66
2021/05/14 03:59:43;;;;;;;;;;;;;;;11.45;100.00;98041.06;5082434;28;19947;-66
2021/05/14 04:02:10;;;;;;;;;;;;;;;11.79;100.00;98053.06;5083068;28;19930;-66
2021/05/14 04:04:35;;;;;;;;;;;;;;;11.37;100.00;98050.91;5063796;28;20355;-66
2021/05/14 04:07:03;;;;;;;;;;;;;;;11.52;100.00;98045.00;5064724;28;19931;-66
2021/05/14 04:09:32;;;;;;;;;;;;;;;11.57;100.00;98045.56;5064573;28;19920;-66
2021/05/14 04:16:54;;;;;;;;;;;;;;;11.66;100.00;98047.69;5082504;28;20393;-66
2021/05/14 04:19:20;;;;;;;;;;;;;;;11.57;100.00;98053.31;5081593;28;19920;-66
2021/05/14 04:21:45;;;;;;;;;;;;;;;11.49;100.00;98056.28;5082246;28;19923;-66
2021/05/14 04:24:10;;;;;;;;;;;;;;;11.58;100.00;98059.28;5045952;28;20347;-66
2021/05/14 04:26:36;;;;;;;;;;;;;;;11.64;100.00;98057.25;5063968;28;19923;-66
2021/05/14 04:29:01;;;;;;;;;;;;;;;11.85;100.00;98057.88;5083187;28;20492;-66
2021/05/14 04:31:26;;;;;;;;;;;;;;;11.41;100.00;98055.84;5063757;28;19920;-66
2021/05/14 04:33:52;;;;;;;;;;;;;;;11.58;100.00;98054.97;5058666;28;19958;-66
2021/05/14 04:36:17;;;;;;;;;;;;;;;11.95;100.00;98052.25;5080667;28;19970;-66
2021/05/14 04:38:43;;;;;;;;;;;;;;;11.55;100.00;98059.47;5082021;28;20326;-67
2021/05/14 04:41:09;;;;;;;;;;;;;;;11.37;100.00;98062.06;5065094;28;19924;-66
2021/05/14 04:43:34;;;;;;;;;;;;;;;11.83;100.00;98058.88;5083388;28;19978;-66
2021/05/14 04:45:59;;;;;;;;;;;;;;;11.62;100.00;98056.47;5083870;28;20275;-66
2021/05/14 04:48:25;;;;;;;;;;;;;;;11.40;100.00;98066.22;5047657;28;20390;-66
2021/05/14 04:50:50;;;;;;;;;;;;;;;11.36;100.00;98065.56;5046187;28;19924;-66
2021/05/14 04:53:17;;;;;;;;;;;;;;;11.19;100.00;98065.53;5060036;28;19916;-66
2021/05/14 04:55:42;;;;;;;;;;;;;;;11.21;100.00;98064.56;5081367;28;20015;-66
2021/05/14 04:58:07;;;;;;;;;;;;;;;11.55;100.00;98065.44;5080675;28;20018;-66
2021/05/14 05:00:33;;;;;;;;;;;;;;;11.63;100.00;98065.03;5063352;28;20299;-66
2021/05/14 05:02:58;;;;;;;;;;;;;;;11.51;100.00;98074.25;5079978;28;20395;-66
2021/05/14 05:05:24;;;;;;;;;;;;;;;11.44;100.00;98067.72;5079796;28;19978;-66
2021/05/14 05:07:49;;;;;;;;;;;;;;;11.45;100.00;98070.25;5049548;28;19966;-66
2021/05/14 05:10:14;;;;;;;;;;;;;;;11.46;100.00;98076.22;5057826;28;19917;-66
2021/05/14 05:12:40;;;;;;;;;;;;;;;11.56;100.00;98072.25;5082158;28;19927;-66
2021/05/14 05:15:05;;;;;;;;;;;;;;;11.42;100.00;98067.81;5063382;28;19993;-66
2021/05/14 05:17:31;;;;;;;;;;;;;;;11.51;100.00;98074.25;5080558;28;20375;-66
2021/05/14 05:19:56;;;;;;;;;;;;;;;11.50;100.00;98070.00;5059797;28;19927;-66
2021/05/14 05:22:22;;;;;;;;;;;;;;;11.51;100.00;98076.81;5061183;28;20353;-66
2021/05/14 05:24:47;;;;;;;;;;;;;;;11.58;100.00;98078.19;5062220;28;19974;-66
2021/05/14 05:27:13;;;;;;;;;;;;;;;11.23;100.00;98078.22;5080074;28;19971;-67
2021/05/14 05:29:39;;;;;;;;;;;;;;;11.39;100.00;98080.03;5080289;28;19976;-66
2021/05/14 05:32:04;;;;;;;;;;;;;;;11.44;100.00;98083.19;5080641;28;19916;-66
2021/05/14 05:34:29;;;;;;;;;;;;;;;11.71;100.00;98081.81;5060193;28;20175;-66
2021/05/14 05:36:55;;;;;;;;;;;;;;;11.82;100.00;98076.09;5079674;28;19925;-66
2021/05/14 05:39:20;;;;;;;;;;;;;;;11.89;100.00;98085.22;5081248;28;19920;-66
2021/05/14 05:41:46;;;;;;;;;;;;;;;11.57;100.00;98084.25;5082969;28;19947;-66
2021/05/14 05:44:11;;;;;;;;;;;;;;;11.86;100.00;98087.06;5080643;28;20618;-66
2021/05/14 05:46:37;;;;;;;;;;;;;;;11.98;100.00;98091.63;5045573;28;19959;-66
2021/05/14 05:49:02;;;;;;;;;;;;;;;11.63;100.00;98090.84;5079159;28;20170;-66
2021/05/14 05:51:29;;;;;;;;;;;;;;;11.58;100.00;98091.06;5081984;28;20355;-66
2021/05/14 05:53:54;;;;;;;;;;;;;;;11.32;100.00;98089.81;5080572;28;19931;-66
2021/05/14 05:56:19;;;;;;;;;;;;;;;11.55;100.00;98098.97;5047000;28;19978;-66
2021/05/14 05:58:45;;;;;;;;;;;;;;;11.63;100.00;98099.44;5079140;28;19965;-66
2021/05/14 06:01:10;;;;;;;;;;;;;;;11.66;100.00;98096.69;5061576;28;20027;-66
2021/05/14 06:03:36;;;;;;;;;;;;;;;11.86;100.00;98097.38;5058720;28;19967;-67
2021/05/14 06:06:03;;;;;;;;;;;;;;;11.75;100.00;98102.28;5082159;28;20325;-64
2021/05/14 06:08:29;;;;;;;;;;;;;;;12.42;100.00;98106.50;5081546;28;20361;-66
2021/05/14 06:10:54;;;;;;;;;;;;;;;12.57;100.00;98102.28;5046496;28;20011;-66
2021/05/14 06:13:20;;;;;;;;;;;;;;;12.36;100.00;98104.25;5079655;28;19917;-65
2021/05/14 06:15:45;;;;;;;;;;;;;;;12.50;100.00;98111.28;5038904;28;20035;-64
2021/05/14 06:18:11;;;;;;;;;;;;;;;12.86;100.00;98105.81;5065582;28;20339;-65
2021/05/14 06:20:38;;;;;;;;;;;;;;;12.76;100.00;98107.25;5087629;28;20395;-67
2021/05/14 06:23:04;;;;;;;;;;;;;;;12.43;100.00;98115.09;5064561;28;20436;-64
2021/05/14 06:25:29;;;;;;;;;;;;;;;13.15;100.00;98113.69;5084450;28;19916;-66
2021/05/14 06:27:54;;;;;;;;;;;;;;;12.68;100.00;98109.41;5087491;28;19920;-67
2021/05/14 06:30:20;;;;;;;;;;;;;;;12.95;100.00;98115.66;5081963;28;19928;-67
2021/05/14 06:32:45;;;;;;;;;;;;;;;12.32;100.00;98118.25;5083951;28;20337;-67
2021/05/14 06:35:13;;;;;;;;;;;;;;;11.85;100.00;98124.13;5088216;28;19919;-65
2021/05/14 06:37:38;;;;;;;;;;;;;;;12.28;100.00;98121.91;5090051;28;19916;-64
2021/05/14 06:40:07;;;;;;;;;;;;;;;12.61;100.00;98124.41;5089536;28;21083;-66
2021/05/14 06:42:32;;;;;;;;;;;;;;;12.37;100.00;98128.34;5083938;28;20016;-66
2021/05/14 06:44:58;;;;;;;;;;;;;;;12.36;100.00;98127.50;5064572;28;20514;-66
2021/05/14 06:47:23;;;;;;;;;;;;;;;12.39;100.00;98129.09;5081645;28;20038;-66
2021/05/14 06:49:48;;;;;;;;;;;;;;;12.02;100.00;98126.69;5065380;28;20310;-66
2021/05/14 06:52:15;;;;;;;;;;;;;;;12.20;100.00;98129.22;5064896;28;19956;-67
2021/05/14 06:54:40;;;;;;;;;;;;;;;12.31;100.00;98132.91;5047100;28;20002;-66
2021/05/14 06:57:06;;;;;;;;;;;;;;;12.53;100.00;98132.59;5082750;28;19920;-66
2021/05/14 06:59:31;;;;;;;;;;;;;;;12.80;100.00;98123.44;5066668;28;19928;-66
2021/05/14 07:01:56;;;;;;;;;;;;;;;12.45;100.00;98134.78;5062184;28;19934;-66
2021/05/14 07:04:22;;;;;;;;;;;;;;;12.34;100.00;98142.25;5058331;28;19943;-66
2021/05/14 07:06:47;;;;;;;;;;;;;;;12.52;100.00;98140.41;5061119;28;20007;-67
2021/05/14 07:09:13;;;;;;;;;;;;;;;13.06;100.00;98135.72;5059263;28;19920;-67
2021/05/14 07:11:38;;;;;;;;;;;;;;;13.30;100.00;98138.72;5056991;28;20388;-68
2021/05/14 07:14:03;;;;;;;;;;;;;;;12.83;100.00;98137.00;5058763;28;19912;-67
2021/05/14 07:16:29;;;;;;;;;;;;;;;12.80;100.00;98149.28;5062791;28;19924;-67
2021/05/14 07:18:55;;;;;;;;;;;;;;;12.40;100.00;98152.22;5063005;28;19923;-68
2021/05/14 07:21:21;;;;;;;;;;;;;;;12.73;100.00;98148.78;5063176;28;19966;-67
2021/05/14 07:23:47;;;;;;;;;;;;;;;13.19;100.00;98152.22;5065896;28;19939;-67
2021/05/14 07:26:12;;;;;;;;;;;;;;;12.61;100.00;98157.16;5066635;28;20011;-68
2021/05/14 07:28:38;;;;;;;;;;;;;;;12.50;100.00;98153.44;5061470;28;20318;-68
2021/05/14 07:31:03;;;;;;;;;;;;;;;12.70;100.00;98159.25;5062440;28;19962;-67
2021/05/14 07:33:29;;;;;;;;;;;;;;;12.48;100.00;98160.41;5063478;28;19923;-67
2021/05/14 07:35:54;;;;;;;;;;;;;;;12.79;100.00;98153.59;5067330;28;19928;-67
2021/05/14 07:38:20;;;;;;;;;;;;;;;13.25;100.00;98150.19;5063144;28;19921;-67
2021/05/14 07:40:45;;;;;;;;;;;;;;;12.90;100.00;98151.25;5062221;28;19916;-68
2021/05/14 07:43:10;;;;;;;;;;;;;;;13.06;100.00;98146.06;5061447;28;19966;-68
2021/05/14 07:45:36;;;;;;;;;;;;;;;13.02;100.00;98146.31;5062282;28;19921;-67
2021/05/14 07:48:02;;;;;;;;;;;;;;;13.86;100.00;98149.28;5062659;28;19927;-67
2021/05/14 07:50:28;;;;;;;;;;;;;;;13.27;100.00;98154.34;5061724;28;19924;-68
2021/05/14 07:52:53;;;;;;;;;;;;;;;13.08;100.00;98158.91;5062989;28;19920;-67
2021/05/14 07:55:18;;;;;;;;;;;;;;;13.07;100.00;98155.50;5059363;28;19970;-67
2021/05/14 07:57:44;;;;;;;;;;;;;;;13.27;100.00;98159.53;5062670;28;19959;-67
2021/05/14 08:00:09;;;;;;;;;;;;;;;13.16;100.00;98164.50;5064461;28;20387;-67
2021/05/14 08:02:35;;;;;;;;;;;;;;;12.91;100.00;98168.44;5082393;28;19927;-67
2021/05/14 08:05:00;;;;;;;;;;;;;;;12.86;100.00;98169.59;5081877;28;20014;-67
2021/05/14 08:07:25;;;;;;;;;;;;;;;12.97;100.00;98170.66;5083328;28;19916;-67
2021/05/14 08:09:51;;;;;;;;;;;;;;;13.33;100.00;98166.16;5081618;28;20267;-67
2021/05/14 08:12:16;;;;;;;;;;;;;;;13.31;100.00;98165.41;5079946;28;20284;-66
2021/05/14 08:14:41;;;;;;;;;;;;;;;13.35;100.00;98170.31;5079803;28;19923;-69
2021/05/14 08:17:07;;;;;;;;;;;;;;;13.70;100.00;98171.81;5080591;28;20390;-69
2021/05/14 08:19:32;;;;;;;;;;;;;;;13.57;100.00;98171.66;5063766;28;20293;-67
2021/05/14 08:21:57;;;;;;;;;;;;;;;13.96;100.00;98170.28;5079636;28;19924;-67
2021/05/14 08:24:23;;;;;;;;;;;;;;;13.68;100.00;98174.47;5082528;28;19919;-68
2021/05/14 08:26:48;;;;;;;;;;;;;;;13.31;100.00;98174.00;5065822;28;19920;-67
2021/05/14 08:29:14;;;;;;;;;;;;;;;13.25;100.00;98173.47;5083828;28;19954;-67
2021/05/14 08:31:39;;;;;;;;;;;;;;;13.66;100.00;98170.31;5060797;28;20470;-67
2021/05/14 08:34:08;;;;;;;;;;;;;;;13.64;100.00;98173.00;5065441;28;19945;-68
2021/05/14 08:36:34;;;;;;;;;;;;;;;13.22;100.00;98171.06;5062662;28;19969;-67
2021/05/14 08:38:59;;;;;;;;;;;;;;;13.44;100.00;98173.31;5065262;28;19912;-67
2021/05/14 08:41:25;;;;;;;;;;;;;;;13.07;100.00;98172.75;5081194;28;19920;-67
2021/05/14 08:43:51;;;;;;;;;;;;;;;13.19;100.00;98169.50;5082021;28;20388;-67
2021/05/14 08:46:17;;;;;;;;;;;;;;;13.34;100.00;98168.66;5063080;28;19945;-67
2021/05/14 08:48:42;;;;;;;;;;;;;;;13.29;100.00;98172.41;5046634;28;19973;-67
2021/05/14 08:51:08;;;;;;;;;;;;;;;13.02;100.00;98169.59;5054793;28;20385;-67
2021/05/14 08:53:34;;;;;;;;;;;;;;;13.72;100.00;98175.97;5062661;28;19923;-67
2021/05/14 08:55:59;;;;;;;;;;;;;;;13.98;100.00;98181.38;5062597;28;20328;-67
2021/05/14 08:58:25;;;;;;;;;;;;;;;13.93;100.00;98173.88;5081258;28;20416;-67
2021/05/14 09:00:50;;;;;;;;;;;;;;;13.13;100.00;98172.41;5058986;28;20412;-67
2021/05/14 09:03:17;;;;;;;;;;;;;;;12.91;100.00;98178.78;5060498;28;19927;-67
2021/05/14 09:05:43;;;;;;;;;;;;;;;13.31;100.00;98179.16;5061692;28;20005;-67
2021/05/14 09:08:08;;;;;;;;;;;;;;;13.79;100.00;98166.91;5062865;28;19990;-67
2021/05/14 09:10:34;;;;;;;;;;;;;;;14.02;96.14;98172.50;5078403;28;19928;-67
2021/05/14 09:12:59;;;;;;;;;;;;;;;14.46;87.55;98175.94;5061641;28;20383;-67
2021/05/14 09:15:33;;;;;;;;;;;;;;;14.73;88.47;98178.63;5080660;28;20450;-64
2021/05/14 09:18:05;;;;;;;;;;;;;;;14.70;89.87;98168.44;5063002;28;19912;-67
2021/05/14 09:20:31;;;;;;;;;;;;;;;15.95;91.37;98164.69;5057481;28;19951;-67
2021/05/14 09:22:56;;;;;;;;;;;;;;;15.72;81.70;98168.84;5058762;28;20736;-67
2021/05/14 09:25:22;;;;;;;;;;;;;;;14.58;82.13;98181.22;5057506;28;19955;-67
2021/05/14 09:27:47;;;;;;;;;;;;;;;14.01;88.14;98182.03;5057238;28;19926;-67
2021/05/14 09:30:13;;;;;;;;;;;;;;;13.92;96.90;98181.75;5046733;28;20624;-67
2021/05/14 09:32:41;;;;;;;;;;;;;;;14.21;92.75;98175.66;5061954;28;20014;-67
2021/05/14 09:35:07;;;;;;;;;;;;;;;14.16;94.68;98179.44;5046756;28;20324;-67
2021/05/14 09:37:32;;;;;;;;;;;;;;;14.89;89.43;98176.72;5061503;28;19927;-66
2021/05/14 09:40:16;;;;;;;;;;;;;;;15.13;85.70;98171.75;5081427;28;19927;-67
2021/05/14 09:42:41;;;;;;;;;;;;;;;15.44;82.85;98170.63;5079741;28;20007;-67
2021/05/14 09:45:17;;;;;;;;;;;;;;;15.19;79.13;98173.97;5082061;28;20010;-67
2021/05/14 09:47:42;;;;;;;;;;;;;;;15.68;85.28;98172.53;5062011;28;19947;-67
2021/05/14 09:50:30;;;;;;;;;;;;;;;15.46;84.97;98173.94;5081064;28;20424;-68
2021/05/14 09:53:01;;;;;;;;;;;;;;;15.61;73.99;98163.47;5058156;28;19920;-67
2021/05/14 09:55:26;;;;;;;;;;;;;;;15.51;81.75;98171.06;5078411;28;19968;-67
2021/05/14 09:58:00;;;;;;;;;;;;;;;16.34;88.24;98164.69;5079677;28;19962;-68
2021/05/14 10:00:25;;;;;;;;;;;;;;;14.69;92.48;98174.53;5053847;28;19924;-67
2021/05/14 10:02:51;;;;;;;;;;;;;;;15.29;90.53;98169.00;5060017;28;20361;-67
2021/05/14 10:05:16;;;;;;;;;;;;;;;15.45;72.93;98167.06;5061243;28;19928;-67
2021/05/14 10:07:42;;;;;;;;;;;;;;;15.73;69.50;98154.91;5054926;28;19920;-67
2021/05/14 10:10:08;;;;;;;;;;;;;;;15.89;74.38;98160.72;5061958;28;20566;-67
2021/05/14 10:12:34;;;;;;;;;;;;;;;16.21;65.68;98164.69;5061487;28;19967;-67
2021/05/14 10:15:01;;;;;;;;;;;;;;;16.64;63.81;98157.34;5059087;28;20327;-67
2021/05/14 10:17:26;;;;;;;;;;;;;;;15.95;70.30;98156.91;5058818;28;20375;-67
2021/05/14 10:19:52;;;;;;;;;;;;;;;15.75;68.19;98163.44;5061544;28;19927;-67
2021/05/14 10:22:18;;;;;;;;;;;;;;;17.02;70.24;98145.19;5061245;28;19916;-67
2021/05/14 10:24:44;;;;;;;;;;;;;;;15.93;67.05;98165.75;5060397;28;19923;-67
2021/05/14 10:27:16;;;;;;;;;;;;;;;16.30;66.06;98154.47;5076940;28;19920;-67
2021/05/14 10:29:42;;;;;;;;;;;;;;;16.90;65.63;98152.09;5059928;28;19927;-67
2021/05/14 10:32:12;;;;;;;;;;;;;;;17.25;67.29;98141.75;5073873;28;19919;-67
2021/05/14 10:34:42;;;;;;;;;;;;;;;16.47;71.96;98152.50;5060745;28;20497;-67
2021/05/14 10:37:07;;;;;;;;;;;;;;;15.89;64.59;98150.34;5045024;28;19912;-67
2021/05/14 10:39:35;;;;;;;;;;;;;;;16.40;63.57;98148.66;5080175;28;20291;-67
2021/05/14 10:42:21;;;;;;;;;;;;;;;16.92;64.85;98145.00;5047474;28;19931;-67
2021/05/14 10:44:49;;;;;;;;;;;;;;;16.13;68.08;98152.22;5080524;28;20066;-67
2021/05/14 10:47:20;;;;;;;;;;;;;;;15.93;62.52;98152.75;5081336;28;19916;-68
2021/05/14 10:49:46;;;;;;;;;;;;;;;16.09;68.06;98148.19;5061909;28;20407;-68
2021/05/14 10:52:11;;;;;;;;;;;;;;;15.12;70.58;98149.38;5080106;28;19923;-68
2021/05/14 10:54:43;;;;;;;;;;;;;;;15.65;71.99;98147.59;5078425;28;19921;-67
2021/05/14 10:57:09;;;;;;;;;;;;;;;16.45;66.32;98151.78;5080438;28;20050;-68
2021/05/14 10:59:35;;;;;;;;;;;;;;;16.36;64.56;98155.03;5065954;28;20019;-68
2021/05/14 11:02:01;;;;;;;;;;;;;;;16.68;62.10;98153.59;5078313;28;19928;-68
2021/05/14 11:04:26;;;;;;;;;;;;;;;15.13;62.24;98150.19;5086047;28;19920;-68
2021/05/14 11:06:52;;;;;;;;;;;;;;;15.23;68.86;98148.66;5085537;28;19920;-68
2021/05/14 11:09:18;;;;;;;;;;;;;;;15.29;66.80;98144.84;5085741;28;19924;-67
2021/05/14 11:11:55;;;;;;;;;;;;;;;15.45;66.24;98145.50;5067060;28;20016;-67
2021/05/14 11:14:21;;;;;;;;;;;;;;;16.09;64.25;98150.78;5080479;28;20401;-67
2021/05/14 11:16:46;;;;;;;;;;;;;;;16.60;68.66;98140.28;5067566;28;19920;-67
2021/05/14 11:19:19;;;;;;;;;;;;;;;16.21;60.82;98149.09;5064347;28;19923;-67
2021/05/14 11:22:03;;;;;;;;;;;;;;;16.95;64.03;98151.78;5083819;28;20539;-67
2021/05/14 11:24:29;;;;;;;;;;;;;;;17.03;60.00;98137.25;5084860;28;19927;-67
2021/05/14 11:27:01;;;;;;;;;;;;;;;15.57;63.48;98149.03;5081031;28;19916;-67
2021/05/14 11:29:41;;;;;;;;;;;;;;;15.33;69.35;98147.13;5065011;28;20685;-67
2021/05/14 11:32:20;;;;;;;;;;;;;;;15.84;60.66;98146.41;5082320;28;20299;-67
2021/05/14 11:34:51;;;;;;;;;;;;;;;17.07;61.84;98138.72;5068664;28;20031;-67
2021/05/14 11:37:21;;;;;;;;;;;;;;;17.78;57.26;98128.28;5083138;28;19923;-67
2021/05/14 11:39:46;;;;;;;;;;;;;;;17.43;61.39;98139.56;5063573;28;20019;-67
2021/05/14 11:42:18;;;;;;;;;;;;;;;17.09;59.44;98136.81;5084219;28;20031;-67
2021/05/14 11:44:56;;;;;;;;;;;;;;;16.88;57.34;98141.00;5081674;28;19920;-67
2021/05/14 11:47:21;;;;;;;;;;;;;;;17.23;60.91;98132.41;5083989;28;19999;-67
2021/05/14 11:49:47;;;;;;;;;;;;;;;17.64;57.75;98129.31;5083598;28;20041;-68
2021/05/14 11:52:12;;;;;;;;;;;;;;;15.93;56.50;98150.16;5083951;28;19923;-67
2021/05/14 11:54:37;;;;;;;;;;;;;;;15.85;56.56;98138.53;5064976;28;19973;-67
2021/05/14 11:57:03;;;;;;;;;;;;;;;16.87;59.59;98137.53;5081140;28;20027;-68
2021/05/14 11:59:28;;;;;;;;;;;;;;;17.65;54.99;98132.75;5079220;28;20681;-68
2021/05/14 12:01:53;;;;;;;;;;;;;;;18.64;54.45;98121.69;5079735;28;20220;-68
2021/05/14 12:04:19;;;;;;;;;;;;;;;17.80;57.53;98136.00;5062086;28;19920;-68
2021/05/14 12:06:48;;;;;;;;;;;;;;;17.19;54.51;98131.78;5080683;28;20371;-68
2021/05/14 12:09:14;;;;;;;;;;;;;;;17.60;54.72;98129.66;5047603;28;20524;-67
2021/05/14 12:11:40;;;;;;;;;;;;;;;17.19;56.20;98131.78;5058969;28;19924;-68
2021/05/14 12:14:07;;;;;;;;;;;;;;;17.50;53.02;98126.94;5063066;28;19920;-68
2021/05/14 12:16:35;;;;;;;;;;;;;;;17.96;53.59;98132.13;5080294;28;19920;-68
2021/05/14 12:19:02;;;;;;;;;;;;;;;16.78;55.54;98121.72;5080375;28;19928;-67
2021/05/14 12:21:28;;;;;;;;;;;;;;;17.02;54.77;98134.78;5063804;28;19920;-68
2021/05/14 12:23:54;;;;;;;;;;;;;;;17.94;60.59;98133.19;5082333;28;19915;-68
2021/05/14 12:26:20;;;;;;;;;;;;;;;18.66;54.41;98127.63;5080207;28;19963;-68
2021/05/14 12:28:48;;;;;;;;;;;;;;;18.28;50.95;98126.22;5081868;28;19978;-68
2021/05/14 12:31:14;;;;;;;;;;;;;;;18.22;54.56;98136.28;5059061;28;20237;-68
2021/05/14 12:33:52;;;;;;;;;;;;;;;17.62;54.68;98127.78;5076565;28;20395;-68
2021/05/14 12:36:22;;;;;;;;;;;;;;;17.65;53.11;98123.19;5078900;28;19920;-68
2021/05/14 12:38:51;;;;;;;;;;;;;;;18.60;53.78;98125.47;5076742;28;19990;-66
2021/05/14 12:41:24;;;;;;;;;;;;;;;17.31;52.70;98136.09;5081154;28;19977;-68